CES7630 ZUXC-PHNL
Flight info
| Callsign | CES7630 |
|---|---|
| Flight time | N/A |
| Altitude | 35100 |
| Route | BOPTU W162 KAKMI W144 IGNAK W179 WFX B213 ESPEG V154 SNF W269 OLPOV B213 WHA R343 PK A593 AKARA/K0924F351 A593 LAMEN/N0499F351 A593 SADLI Y590 BEDAR Y591 FUE Y23 KASTE Y81 TASOT Y57 LIGNI Y816 IPROS Y830 LAPIL OTR13 SEALS DCT 34N153E DCT 34N159E DCT 33N166E DCT 31N173E DCT 29N179E DCT 27N174W DCT 25N168W DCT CANON DCT CANON |
| Aircraft | MD11/H-SDE1E2E3FGHIJ2J3J4J5M1RWXY/LB1D1 |
Departure
| Time | 2026-04-12 13:52 |
|---|---|
| Airport | Xichang Qingshan Airport (ZUXC) |
Arrival
| Time | N/A |
|---|---|
| Airport | Daniel K. Inouye International Airport (PHNL) |
| Time | Latitude | Longitude | Altitude | Speed | Heading |
|---|---|---|---|---|---|
| 2026-04-12 13:22 | 27.98292 | 102.18647 | 5089 ft | 0 kts | 88° |
| 2026-04-12 13:39 | 27.98292 | 102.18638 | 5089 ft | 4 kts | 86° |
| 2026-04-12 13:40 | 27.98291 | 102.18611 | 5089 ft | 4 kts | 86° |
| 2026-04-12 13:40 | 27.98287 | 102.18586 | 5091 ft | 4 kts | 52° |
| 2026-04-12 13:40 | 27.98278 | 102.18574 | 5095 ft | 4 kts | 354° |
| 2026-04-12 13:40 | 27.98253 | 102.18582 | 5091 ft | 4 kts | 339° |
| 2026-04-12 13:41 | 27.98228 | 102.18591 | 5090 ft | 4 kts | 355° |
| 2026-04-12 13:41 | 27.98223 | 102.18592 | 5091 ft | 1 kts | 360° |
| 2026-04-12 13:45 | 27.98244 | 102.18592 | 5091 ft | 7 kts | 360° |
| 2026-04-12 13:45 | 27.98316 | 102.18590 | 5089 ft | 13 kts | 358° |
| 2026-04-12 13:45 | 27.98413 | 102.18585 | 5089 ft | 15 kts | 357° |
| 2026-04-12 13:46 | 27.98529 | 102.18580 | 5089 ft | 18 kts | 358° |
| 2026-04-12 13:46 | 27.98661 | 102.18576 | 5089 ft | 18 kts | 358° |
| 2026-04-12 13:46 | 27.98782 | 102.18572 | 5089 ft | 17 kts | 358° |
| 2026-04-12 13:46 | 27.98893 | 102.18568 | 5089 ft | 15 kts | 358° |
| 2026-04-12 13:47 | 27.98994 | 102.18564 | 5090 ft | 14 kts | 358° |
| 2026-04-12 13:47 | 27.99094 | 102.18560 | 5090 ft | 15 kts | 358° |
| 2026-04-12 13:47 | 27.99201 | 102.18556 | 5090 ft | 16 kts | 358° |
| 2026-04-12 13:47 | 27.99321 | 102.18551 | 5090 ft | 18 kts | 358° |
| 2026-04-12 13:48 | 27.99449 | 102.18546 | 5090 ft | 19 kts | 358° |
| 2026-04-12 13:48 | 27.99582 | 102.18541 | 5090 ft | 19 kts | 358° |
| 2026-04-12 13:48 | 27.99719 | 102.18535 | 5090 ft | 20 kts | 358° |
| 2026-04-12 13:48 | 27.99861 | 102.18531 | 5089 ft | 21 kts | 358° |
| 2026-04-12 13:49 | 28.00008 | 102.18525 | 5089 ft | 21 kts | 358° |
| 2026-04-12 13:49 | 28.00158 | 102.18518 | 5089 ft | 22 kts | 358° |
| 2026-04-12 13:49 | 28.00313 | 102.18512 | 5089 ft | 22 kts | 358° |
| 2026-04-12 13:49 | 28.00445 | 102.18508 | 5090 ft | 11 kts | 358° |
| 2026-04-12 13:50 | 28.00484 | 102.18495 | 5090 ft | 0 kts | 316° |
| 2026-04-12 13:50 | 28.00488 | 102.18491 | 5090 ft | 1 kts | 316° |
| 2026-04-12 13:50 | 28.00499 | 102.18474 | 5092 ft | 5 kts | 302° |
| 2026-04-12 13:50 | 28.00509 | 102.18416 | 5091 ft | 8 kts | 271° |
| 2026-04-12 13:51 | 28.00467 | 102.18371 | 5091 ft | 11 kts | 180° |
| 2026-04-12 13:51 | 28.00273 | 102.18375 | 5091 ft | 62 kts | 177° |
| 2026-04-12 13:51 | 27.99595 | 102.18404 | 5091 ft | 131 kts | 178° |
| 2026-04-12 13:51 | 27.98496 | 102.18447 | 5091 ft | 180 kts | 178° |
| 2026-04-12 13:52 | 27.97213 | 102.18515 | 5505 ft | 187 kts | 176° |
| 2026-04-12 13:52 | 27.95907 | 102.18602 | 6106 ft | 188 kts | 176° |
| 2026-04-12 13:52 | 27.94591 | 102.18683 | 6706 ft | 190 kts | 177° |
| 2026-04-12 13:52 | 27.93281 | 102.18761 | 7279 ft | 192 kts | 177° |
| 2026-04-12 13:53 | 27.91939 | 102.18840 | 7826 ft | 194 kts | 177° |
| 2026-04-12 13:53 | 27.90583 | 102.18897 | 8302 ft | 200 kts | 182° |
| 2026-04-12 13:53 | 27.89150 | 102.18606 | 8462 ft | 218 kts | 197° |
| 2026-04-12 13:53 | 27.87663 | 102.18034 | 8816 ft | 228 kts | 200° |
| 2026-04-12 13:54 | 27.86126 | 102.17557 | 9319 ft | 231 kts | 182° |
| 2026-04-12 13:54 | 27.84550 | 102.17848 | 9840 ft | 232 kts | 161° |
| 2026-04-12 13:54 | 27.83054 | 102.18491 | 10327 ft | 235 kts | 158° |
| 2026-04-12 13:54 | 27.81536 | 102.19191 | 10821 ft | 237 kts | 158° |
| 2026-04-12 13:55 | 27.80024 | 102.19942 | 11284 ft | 238 kts | 150° |
| 2026-04-12 13:55 | 27.78694 | 102.21116 | 11493 ft | 251 kts | 128° |
| 2026-04-12 13:55 | 27.77926 | 102.22912 | 11623 ft | 262 kts | 99° |
| 2026-04-12 13:55 | 27.78042 | 102.24988 | 11775 ft | 273 kts | 72° |
| 2026-04-12 13:56 | 27.78785 | 102.27009 | 11920 ft | 288 kts | 64° |
| 2026-04-12 13:56 | 27.79735 | 102.29113 | 12041 ft | 313 kts | 62° |
| 2026-04-12 13:56 | 27.80786 | 102.31379 | 12196 ft | 338 kts | 62° |
| 2026-04-12 13:56 | 27.81896 | 102.33784 | 12345 ft | 361 kts | 63° |
| 2026-04-12 13:57 | 27.83057 | 102.36327 | 12961 ft | 367 kts | 63° |
| 2026-04-12 13:57 | 27.84225 | 102.38907 | 13661 ft | 371 kts | 63° |
| 2026-04-12 13:57 | 27.85402 | 102.41523 | 14328 ft | 376 kts | 63° |
| 2026-04-12 13:57 | 27.86594 | 102.44183 | 14941 ft | 382 kts | 63° |
| 2026-04-12 13:58 | 27.87798 | 102.46876 | 15578 ft | 387 kts | 63° |
| 2026-04-12 13:58 | 27.89019 | 102.49611 | 16163 ft | 392 kts | 63° |
| 2026-04-12 13:58 | 27.90257 | 102.52373 | 16787 ft | 396 kts | 63° |
| 2026-04-12 13:58 | 27.91515 | 102.55168 | 17396 ft | 400 kts | 63° |
| 2026-04-12 13:59 | 27.92764 | 102.57942 | 18029 ft | 403 kts | 63° |
| 2026-04-12 13:59 | 27.94042 | 102.60777 | 18672 ft | 405 kts | 63° |
| 2026-04-12 13:59 | 27.95324 | 102.63621 | 19277 ft | 408 kts | 63° |
| 2026-04-12 13:59 | 27.96619 | 102.66497 | 19837 ft | 412 kts | 63° |
| 2026-04-12 14:00 | 27.97925 | 102.69399 | 20368 ft | 415 kts | 63° |
| 2026-04-12 14:00 | 27.99236 | 102.72316 | 20966 ft | 417 kts | 63° |
| 2026-04-12 14:00 | 28.00558 | 102.75258 | 21490 ft | 421 kts | 63° |
| 2026-04-12 14:00 | 28.01893 | 102.78231 | 21915 ft | 427 kts | 63° |
| 2026-04-12 14:01 | 28.03222 | 102.81193 | 22461 ft | 428 kts | 63° |
| 2026-04-12 14:01 | 28.04572 | 102.84204 | 23002 ft | 430 kts | 63° |
| 2026-04-12 14:01 | 28.05929 | 102.87233 | 23517 ft | 433 kts | 63° |
| 2026-04-12 14:01 | 28.07295 | 102.90286 | 23993 ft | 436 kts | 63° |
| 2026-04-12 14:02 | 28.08667 | 102.93352 | 24472 ft | 439 kts | 63° |
| 2026-04-12 14:02 | 28.10051 | 102.96449 | 24886 ft | 442 kts | 63° |
| 2026-04-12 14:02 | 28.11440 | 102.99559 | 25401 ft | 443 kts | 63° |
| 2026-04-12 14:02 | 28.12835 | 103.02685 | 25877 ft | 445 kts | 63° |
| 2026-04-12 14:03 | 28.14239 | 103.05833 | 26239 ft | 450 kts | 63° |
| 2026-04-12 14:03 | 28.15632 | 103.08960 | 26704 ft | 451 kts | 63° |
| 2026-04-12 14:03 | 28.17026 | 103.12089 | 27729 ft | 431 kts | 63° |
| 2026-04-12 14:03 | 28.18369 | 103.15108 | 28594 ft | 427 kts | 63° |
| 2026-04-12 14:04 | 28.19703 | 103.18108 | 29180 ft | 426 kts | 63° |
| 2026-04-12 14:04 | 28.21041 | 103.21120 | 29558 ft | 430 kts | 63° |
| 2026-04-12 14:04 | 28.22384 | 103.24145 | 30051 ft | 429 kts | 63° |
| 2026-04-12 14:04 | 28.23725 | 103.27168 | 30560 ft | 428 kts | 63° |
| 2026-04-12 14:05 | 28.25055 | 103.30169 | 31177 ft | 423 kts | 63° |
| 2026-04-12 14:05 | 28.26370 | 103.33138 | 31744 ft | 420 kts | 63° |
| 2026-04-12 14:05 | 28.28944 | 103.38998 | 32652 ft | 415 kts | 63° |
| 2026-04-12 14:06 | 28.30229 | 103.41925 | 33046 ft | 414 kts | 63° |
| 2026-04-12 14:06 | 28.31514 | 103.44846 | 33384 ft | 414 kts | 63° |
| 2026-04-12 14:06 | 28.32801 | 103.47770 | 33691 ft | 415 kts | 63° |
| 2026-04-12 14:06 | 28.34089 | 103.50692 | 34027 ft | 413 kts | 63° |
| 2026-04-12 14:07 | 28.35369 | 103.53600 | 34409 ft | 411 kts | 63° |
| 2026-04-12 14:07 | 28.36643 | 103.56493 | 34774 ft | 408 kts | 63° |
| 2026-04-12 14:07 | 28.37911 | 103.59373 | 35029 ft | 409 kts | 63° |
| 2026-04-12 14:07 | 28.39174 | 103.62244 | 35080 ft | 414 kts | 63° |
| 2026-04-12 14:08 | 28.41770 | 103.68156 | 35102 ft | 420 kts | 63° |
| 2026-04-12 14:08 | 28.44338 | 103.74011 | 35101 ft | 409 kts | 63° |
| 2026-04-12 14:09 | 28.46876 | 103.79805 | 35102 ft | 410 kts | 63° |
| 2026-04-12 14:09 | 28.49392 | 103.85559 | 35102 ft | 405 kts | 63° |
| 2026-04-12 14:10 | 28.51885 | 103.91268 | 35102 ft | 407 kts | 63° |
| 2026-04-12 14:10 | 28.54404 | 103.97044 | 35102 ft | 407 kts | 64° |
| 2026-04-12 14:11 | 28.56902 | 104.02780 | 35101 ft | 405 kts | 64° |
| 2026-04-12 14:11 | 28.59390 | 104.08546 | 35101 ft | 407 kts | 64° |
| 2026-04-12 14:12 | 28.61865 | 104.14288 | 35100 ft | 405 kts | 64° |
| 2026-04-12 14:12 | 28.64613 | 104.19855 | 35099 ft | 403 kts | 54° |
| 2026-04-12 14:13 | 28.68473 | 104.24434 | 35100 ft | 402 kts | 37° |
| 2026-04-12 14:13 | 28.73361 | 104.27499 | 35100 ft | 403 kts | 20° |
| 2026-04-12 14:14 | 28.78785 | 104.28864 | 35102 ft | 404 kts | 4° |
| 2026-04-12 14:14 | 28.84398 | 104.28762 | 35101 ft | 403 kts | 356° |
| 2026-04-12 14:15 | 28.89977 | 104.28326 | 35100 ft | 401 kts | 356° |
| 2026-04-12 14:15 | 28.95549 | 104.27948 | 35099 ft | 401 kts | 357° |
| 2026-04-12 14:16 | 29.01126 | 104.27621 | 35100 ft | 401 kts | 357° |
| 2026-04-12 14:16 | 29.06666 | 104.27311 | 35100 ft | 402 kts | 357° |
| 2026-04-12 14:17 | 29.12249 | 104.27002 | 35100 ft | 402 kts | 357° |
| 2026-04-12 14:17 | 29.17835 | 104.26692 | 35100 ft | 402 kts | 357° |
| 2026-04-12 14:18 | 29.23415 | 104.26382 | 35100 ft | 401 kts | 357° |
| 2026-04-12 14:18 | 29.28956 | 104.26377 | 35101 ft | 401 kts | 6° |
| 2026-04-12 14:19 | 29.34492 | 104.27243 | 35100 ft | 402 kts | 9° |
| 2026-04-12 14:19 | 29.40013 | 104.28252 | 35100 ft | 402 kts | 9° |
| 2026-04-12 14:20 | 29.45537 | 104.29228 | 35099 ft | 402 kts | 8° |
| 2026-04-12 14:20 | 29.51051 | 104.30178 | 35101 ft | 404 kts | 8° |
| 2026-04-12 14:21 | 29.56606 | 104.31127 | 35100 ft | 403 kts | 8° |
| 2026-04-12 14:21 | 29.62151 | 104.32076 | 35101 ft | 403 kts | 8° |
| 2026-04-12 14:22 | 29.67693 | 104.33024 | 35100 ft | 403 kts | 8° |
| 2026-04-12 14:22 | 29.73199 | 104.33968 | 35099 ft | 403 kts | 8° |
| 2026-04-12 14:23 | 29.78742 | 104.34919 | 35100 ft | 402 kts | 8° |
| 2026-04-12 14:23 | 29.84278 | 104.35870 | 35101 ft | 402 kts | 8° |
| 2026-04-12 14:24 | 29.89811 | 104.36822 | 35100 ft | 402 kts | 8° |
| 2026-04-12 14:24 | 29.95345 | 104.37775 | 35101 ft | 402 kts | 8° |
| 2026-04-12 14:25 | 30.00835 | 104.38721 | 35101 ft | 402 kts | 8° |
| 2026-04-12 14:25 | 30.06363 | 104.39675 | 35100 ft | 402 kts | 8° |
| 2026-04-12 14:26 | 30.11896 | 104.40633 | 35100 ft | 402 kts | 8° |
| 2026-04-12 14:26 | 30.17424 | 104.41598 | 35100 ft | 402 kts | 8° |
| 2026-04-12 14:27 | 30.22921 | 104.42561 | 35102 ft | 402 kts | 8° |
| 2026-04-12 14:27 | 30.28451 | 104.43531 | 35101 ft | 402 kts | 8° |
| 2026-04-12 14:28 | 30.33986 | 104.44501 | 35099 ft | 402 kts | 8° |
| 2026-04-12 14:28 | 30.39518 | 104.45473 | 35100 ft | 402 kts | 8° |
| 2026-04-12 14:29 | 30.45012 | 104.46438 | 35100 ft | 402 kts | 8° |
| 2026-04-12 14:29 | 30.50516 | 104.47562 | 35099 ft | 402 kts | 14° |
| 2026-04-12 14:30 | 30.55692 | 104.49950 | 35101 ft | 401 kts | 31° |
| 2026-04-12 14:30 | 30.60030 | 104.53987 | 35101 ft | 401 kts | 48° |
| 2026-04-12 14:31 | 30.63190 | 104.59254 | 35099 ft | 401 kts | 64° |
| 2026-04-12 14:31 | 30.65126 | 104.65324 | 35102 ft | 402 kts | 73° |
| 2026-04-12 14:32 | 30.66636 | 104.71581 | 35101 ft | 402 kts | 74° |
| 2026-04-12 14:32 | 30.68164 | 104.77828 | 35100 ft | 402 kts | 74° |
| 2026-04-12 14:33 | 30.69724 | 104.84023 | 35101 ft | 402 kts | 73° |
| 2026-04-12 14:33 | 30.71310 | 104.90260 | 35100 ft | 402 kts | 73° |
| 2026-04-12 14:34 | 30.72893 | 104.96490 | 35101 ft | 402 kts | 73° |
| 2026-04-12 14:34 | 30.74474 | 105.02722 | 35100 ft | 402 kts | 73° |
| 2026-04-12 14:35 | 30.76051 | 105.08955 | 35100 ft | 402 kts | 73° |
| 2026-04-12 14:35 | 30.77613 | 105.15143 | 35102 ft | 402 kts | 73° |
| 2026-04-12 14:36 | 30.79185 | 105.21385 | 35101 ft | 402 kts | 73° |
| 2026-04-12 14:36 | 30.80753 | 105.27625 | 35101 ft | 402 kts | 73° |
| 2026-04-12 14:37 | 30.82307 | 105.33824 | 35100 ft | 402 kts | 73° |
| 2026-04-12 14:37 | 30.83869 | 105.40068 | 35100 ft | 402 kts | 74° |
| 2026-04-12 14:38 | 30.85285 | 105.46352 | 35100 ft | 402 kts | 76° |
| 2026-04-12 14:38 | 30.86610 | 105.52668 | 35099 ft | 402 kts | 76° |
| 2026-04-12 14:39 | 30.87928 | 105.58941 | 35100 ft | 402 kts | 76° |
| 2026-04-12 14:39 | 30.89262 | 105.65256 | 35100 ft | 402 kts | 76° |
| 2026-04-12 14:40 | 30.90598 | 105.71578 | 35100 ft | 402 kts | 76° |
| 2026-04-12 14:40 | 30.91930 | 105.77894 | 35099 ft | 402 kts | 76° |
| 2026-04-12 14:41 | 30.93249 | 105.84168 | 35101 ft | 402 kts | 76° |
| 2026-04-12 14:41 | 30.94575 | 105.90491 | 35100 ft | 402 kts | 76° |
| 2026-04-12 14:42 | 30.95898 | 105.96817 | 35100 ft | 402 kts | 76° |
| 2026-04-12 14:42 | 30.96998 | 106.03188 | 35100 ft | 401 kts | 83° |
| 2026-04-12 14:43 | 30.97435 | 106.09627 | 35099 ft | 402 kts | 86° |
| 2026-04-12 14:43 | 30.97764 | 106.16123 | 35099 ft | 401 kts | 86° |
| 2026-04-12 14:44 | 30.98118 | 106.22616 | 35100 ft | 402 kts | 86° |
| 2026-04-12 14:44 | 30.98489 | 106.29107 | 35099 ft | 401 kts | 86° |
| 2026-04-12 14:45 | 30.98860 | 106.35553 | 35101 ft | 401 kts | 86° |
| 2026-04-12 14:45 | 30.99230 | 106.42041 | 35099 ft | 401 kts | 86° |
| 2026-04-12 14:46 | 30.99598 | 106.48535 | 35101 ft | 402 kts | 86° |
| 2026-04-12 14:46 | 30.99962 | 106.55027 | 35100 ft | 402 kts | 86° |
| 2026-04-12 14:47 | 31.00322 | 106.61491 | 35100 ft | 403 kts | 86° |
| 2026-04-12 14:47 | 31.00680 | 106.67998 | 35099 ft | 403 kts | 86° |
| 2026-04-12 14:48 | 31.01035 | 106.74508 | 35099 ft | 402 kts | 86° |
| 2026-04-12 14:48 | 31.01386 | 106.80999 | 35101 ft | 401 kts | 86° |
| 2026-04-12 14:49 | 31.01734 | 106.87486 | 35099 ft | 401 kts | 86° |
| 2026-04-12 14:49 | 31.02076 | 106.93939 | 35100 ft | 401 kts | 86° |
| 2026-04-12 14:50 | 31.02408 | 107.00435 | 35099 ft | 401 kts | 86° |
| 2026-04-12 14:50 | 31.02725 | 107.06927 | 35099 ft | 401 kts | 86° |
| 2026-04-12 14:51 | 31.03048 | 107.13378 | 35099 ft | 401 kts | 86° |
| 2026-04-12 14:51 | 31.03377 | 107.19869 | 35098 ft | 401 kts | 86° |
| 2026-04-12 14:52 | 31.03706 | 107.26382 | 35101 ft | 403 kts | 86° |
| 2026-04-12 14:52 | 31.04032 | 107.32895 | 35102 ft | 402 kts | 86° |
| 2026-04-12 14:53 | 31.04354 | 107.39400 | 35099 ft | 402 kts | 86° |
| 2026-04-12 14:53 | 31.04626 | 107.45860 | 35101 ft | 402 kts | 88° |
| 2026-04-12 14:54 | 31.04821 | 107.52368 | 35099 ft | 402 kts | 88° |
| 2026-04-12 14:54 | 31.04959 | 107.58894 | 35099 ft | 402 kts | 89° |
| 2026-04-12 14:55 | 31.05088 | 107.65418 | 35102 ft | 403 kts | 89° |
| 2026-04-12 14:55 | 31.05212 | 107.71904 | 35100 ft | 402 kts | 89° |
| 2026-04-12 14:56 | 31.05336 | 107.78427 | 35100 ft | 403 kts | 89° |
| 2026-04-12 14:56 | 31.05458 | 107.84953 | 35100 ft | 402 kts | 89° |
| 2026-04-12 14:57 | 31.05578 | 107.91483 | 35101 ft | 403 kts | 89° |
| 2026-04-12 14:57 | 31.05695 | 107.97976 | 35099 ft | 403 kts | 89° |
| 2026-04-12 14:58 | 31.05808 | 108.04506 | 35101 ft | 403 kts | 89° |
| 2026-04-12 14:58 | 31.05919 | 108.11046 | 35101 ft | 402 kts | 89° |
| 2026-04-12 14:59 | 31.06026 | 108.17558 | 35100 ft | 401 kts | 89° |
| 2026-04-12 14:59 | 31.06128 | 108.24012 | 35099 ft | 401 kts | 89° |
| 2026-04-12 15:00 | 31.06278 | 108.33827 | 35103 ft | 406 kts | 89° |
| 2026-04-12 15:01 | 31.06374 | 108.40374 | 35098 ft | 401 kts | 89° |
| 2026-04-12 15:01 | 31.06465 | 108.46836 | 35099 ft | 402 kts | 89° |
| 2026-04-12 15:02 | 31.06555 | 108.53370 | 35100 ft | 403 kts | 89° |
| 2026-04-12 15:02 | 31.06640 | 108.59880 | 35101 ft | 401 kts | 89° |
| 2026-04-12 15:03 | 31.06713 | 108.66393 | 35101 ft | 401 kts | 89° |
| 2026-04-12 15:03 | 31.06770 | 108.72890 | 35101 ft | 401 kts | 89° |
| 2026-04-12 15:04 | 31.06836 | 108.79376 | 35101 ft | 404 kts | 89° |
| 2026-04-12 15:04 | 31.06907 | 108.85949 | 35098 ft | 403 kts | 89° |
| 2026-04-12 15:05 | 31.06976 | 108.92479 | 35099 ft | 404 kts | 89° |
| 2026-04-12 15:05 | 31.07043 | 108.99060 | 35098 ft | 406 kts | 89° |
| 2026-04-12 15:06 | 31.07105 | 109.05598 | 35099 ft | 406 kts | 89° |
| 2026-04-12 15:06 | 31.07165 | 109.12175 | 35099 ft | 406 kts | 89° |
| 2026-04-12 15:07 | 31.07221 | 109.18754 | 35099 ft | 406 kts | 89° |
| 2026-04-12 15:07 | 31.07275 | 109.25352 | 35103 ft | 407 kts | 89° |
| 2026-04-12 15:08 | 31.07324 | 109.31897 | 35101 ft | 406 kts | 89° |
| 2026-04-12 15:08 | 31.07370 | 109.38476 | 35100 ft | 406 kts | 89° |
| 2026-04-12 15:09 | 31.07413 | 109.45052 | 35101 ft | 405 kts | 89° |
| 2026-04-12 15:09 | 31.07452 | 109.51611 | 35097 ft | 402 kts | 89° |
| 2026-04-12 15:10 | 31.07488 | 109.58121 | 35104 ft | 403 kts | 90° |
| 2026-04-12 15:10 | 31.07507 | 109.64584 | 35097 ft | 400 kts | 90° |
| 2026-04-12 15:11 | 31.07266 | 109.71074 | 35095 ft | 402 kts | 101° |
| 2026-04-12 15:11 | 31.05744 | 109.77380 | 35104 ft | 407 kts | 109° |
| 2026-04-12 15:12 | 31.03910 | 109.83575 | 35098 ft | 400 kts | 109° |
| 2026-04-12 15:12 | 31.02131 | 109.89705 | 35102 ft | 404 kts | 108° |
| 2026-04-12 15:13 | 31.00357 | 109.95954 | 35102 ft | 408 kts | 108° |
| 2026-04-12 15:13 | 30.98599 | 110.02189 | 35100 ft | 402 kts | 108° |
| 2026-04-12 15:14 | 30.96855 | 110.08373 | 35098 ft | 403 kts | 108° |
| 2026-04-12 15:14 | 30.95104 | 110.14564 | 35104 ft | 407 kts | 108° |
| 2026-04-12 15:15 | 30.93323 | 110.20850 | 35100 ft | 408 kts | 108° |
| 2026-04-12 15:15 | 30.91552 | 110.27088 | 35098 ft | 404 kts | 108° |
| 2026-04-12 15:16 | 30.89780 | 110.33312 | 35102 ft | 405 kts | 108° |
| 2026-04-12 15:16 | 30.88019 | 110.39488 | 35100 ft | 405 kts | 108° |
| 2026-04-12 15:17 | 30.86242 | 110.45707 | 35096 ft | 404 kts | 108° |
| 2026-04-12 15:17 | 30.84460 | 110.51931 | 35100 ft | 407 kts | 108° |
| 2026-04-12 15:18 | 30.82674 | 110.58156 | 35101 ft | 405 kts | 108° |
| 2026-04-12 15:18 | 30.80890 | 110.64344 | 35105 ft | 406 kts | 109° |
| 2026-04-12 15:19 | 30.79085 | 110.70533 | 35098 ft | 404 kts | 109° |
| 2026-04-12 15:19 | 30.77277 | 110.76755 | 35101 ft | 408 kts | 108° |
| 2026-04-12 15:20 | 30.75476 | 110.82972 | 35099 ft | 403 kts | 108° |
| 2026-04-12 15:20 | 30.73695 | 110.89117 | 35099 ft | 405 kts | 108° |
| 2026-04-12 15:21 | 30.71893 | 110.95322 | 35099 ft | 404 kts | 109° |
| 2026-04-12 15:21 | 30.70096 | 111.01499 | 35101 ft | 403 kts | 109° |
| 2026-04-12 15:22 | 30.68300 | 111.07659 | 35099 ft | 402 kts | 109° |
| 2026-04-12 15:22 | 30.66517 | 111.13759 | 35099 ft | 400 kts | 109° |
| 2026-04-12 15:23 | 30.64728 | 111.19869 | 35101 ft | 400 kts | 109° |
| 2026-04-12 15:23 | 30.63042 | 111.26016 | 35098 ft | 400 kts | 102° |
| 2026-04-12 15:23 | 30.62736 | 111.29214 | 35097 ft | 399 kts | 89° |
| 2026-04-12 15:24 | 30.62953 | 111.32418 | 35101 ft | 399 kts | 82° |
| 2026-04-12 15:24 | 30.63876 | 111.38731 | 35101 ft | 399 kts | 79° |
| 2026-04-12 15:25 | 30.64833 | 111.45080 | 35101 ft | 399 kts | 81° |
| 2026-04-12 15:25 | 30.65478 | 111.51483 | 35100 ft | 399 kts | 86° |
| 2026-04-12 15:26 | 30.65815 | 111.57923 | 35099 ft | 400 kts | 87° |
| 2026-04-12 15:26 | 30.66120 | 111.64325 | 35099 ft | 399 kts | 86° |
| 2026-04-12 15:27 | 30.66438 | 111.70767 | 35101 ft | 400 kts | 86° |
| 2026-04-12 15:27 | 30.66764 | 111.77214 | 35099 ft | 400 kts | 86° |
| 2026-04-12 15:28 | 30.67092 | 111.83661 | 35099 ft | 400 kts | 86° |
| 2026-04-12 15:28 | 30.67415 | 111.90059 | 35099 ft | 399 kts | 86° |
| 2026-04-12 15:29 | 30.67748 | 111.96492 | 35099 ft | 399 kts | 86° |
| 2026-04-12 15:29 | 30.68168 | 112.02922 | 35099 ft | 399 kts | 85° |
| 2026-04-12 15:30 | 30.68615 | 112.09349 | 35101 ft | 399 kts | 85° |
| 2026-04-12 15:30 | 30.69056 | 112.15731 | 35101 ft | 399 kts | 85° |
| 2026-04-12 15:31 | 30.69494 | 112.22161 | 35101 ft | 399 kts | 85° |
| 2026-04-12 15:31 | 30.69929 | 112.28590 | 35101 ft | 399 kts | 85° |
| 2026-04-12 15:32 | 30.70357 | 112.34975 | 35101 ft | 399 kts | 85° |
| 2026-04-12 15:32 | 30.70785 | 112.41410 | 35101 ft | 399 kts | 85° |
| 2026-04-12 15:33 | 30.71210 | 112.47838 | 35101 ft | 399 kts | 85° |
| 2026-04-12 15:33 | 30.71631 | 112.54270 | 35099 ft | 399 kts | 85° |
| 2026-04-12 15:34 | 30.72050 | 112.60702 | 35099 ft | 399 kts | 85° |
| 2026-04-12 15:34 | 30.72462 | 112.67088 | 35101 ft | 399 kts | 85° |
| 2026-04-12 15:35 | 30.72874 | 112.73520 | 35101 ft | 399 kts | 85° |
| 2026-04-12 15:35 | 30.73283 | 112.79949 | 35099 ft | 399 kts | 86° |
| 2026-04-12 15:36 | 30.73685 | 112.86336 | 35099 ft | 399 kts | 86° |
| 2026-04-12 15:36 | 30.74084 | 112.92769 | 35099 ft | 399 kts | 86° |
| 2026-04-12 15:37 | 30.74461 | 112.99203 | 35101 ft | 399 kts | 86° |
| 2026-04-12 15:37 | 30.74845 | 113.05637 | 35100 ft | 399 kts | 86° |
| 2026-04-12 15:38 | 30.75234 | 113.12070 | 35099 ft | 399 kts | 86° |
| 2026-04-12 15:38 | 30.75494 | 113.18470 | 35101 ft | 399 kts | 88° |
| 2026-04-12 15:39 | 30.75658 | 113.24918 | 35099 ft | 399 kts | 88° |
| 2026-04-12 15:39 | 30.75817 | 113.31364 | 35101 ft | 399 kts | 88° |
| 2026-04-12 15:40 | 30.75979 | 113.37812 | 35099 ft | 399 kts | 88° |
| 2026-04-12 15:40 | 30.76141 | 113.44214 | 35101 ft | 399 kts | 88° |
| 2026-04-12 15:41 | 30.76301 | 113.50661 | 35099 ft | 399 kts | 88° |
| 2026-04-12 15:41 | 30.76457 | 113.57104 | 35099 ft | 399 kts | 88° |
| 2026-04-12 15:42 | 30.76611 | 113.63552 | 35099 ft | 399 kts | 88° |
| 2026-04-12 15:42 | 30.76760 | 113.69956 | 35101 ft | 399 kts | 88° |
| 2026-04-12 15:43 | 30.76980 | 113.79627 | 35102 ft | 399 kts | 88° |
| 2026-04-12 15:43 | 30.77122 | 113.86076 | 35101 ft | 399 kts | 88° |
| 2026-04-12 15:44 | 30.77261 | 113.92525 | 35099 ft | 399 kts | 88° |
| 2026-04-12 15:44 | 30.77396 | 113.98930 | 35099 ft | 399 kts | 89° |
| 2026-04-12 15:45 | 30.77585 | 114.05374 | 35101 ft | 399 kts | 87° |
| 2026-04-12 15:45 | 30.77840 | 114.11819 | 35099 ft | 399 kts | 87° |
| 2026-04-12 15:46 | 30.78566 | 114.21432 | 35101 ft | 398 kts | 75° |
| 2026-04-12 15:47 | 30.80392 | 114.27468 | 35102 ft | 399 kts | 68° |
| 2026-04-12 15:47 | 30.82450 | 114.33464 | 35099 ft | 399 kts | 69° |
| 2026-04-12 15:48 | 30.84449 | 114.39486 | 35099 ft | 399 kts | 69° |
| 2026-04-12 15:48 | 30.86409 | 114.45524 | 35099 ft | 399 kts | 69° |
| 2026-04-12 15:49 | 30.88355 | 114.51525 | 35101 ft | 399 kts | 69° |
| 2026-04-12 15:49 | 30.90318 | 114.57568 | 35099 ft | 399 kts | 69° |
| 2026-04-12 15:50 | 30.92280 | 114.63611 | 35099 ft | 399 kts | 69° |
| 2026-04-12 15:50 | 30.94238 | 114.69656 | 35100 ft | 399 kts | 69° |
| 2026-04-12 15:51 | 30.96183 | 114.75668 | 35099 ft | 399 kts | 69° |
| 2026-04-12 15:51 | 30.98136 | 114.81719 | 35100 ft | 399 kts | 69° |
| 2026-04-12 15:52 | 31.00086 | 114.87772 | 35100 ft | 399 kts | 69° |
| 2026-04-12 15:52 | 31.02033 | 114.93834 | 35100 ft | 399 kts | 69° |
| 2026-04-12 15:53 | 31.03954 | 114.99858 | 35101 ft | 399 kts | 70° |
| 2026-04-12 15:53 | 31.05891 | 115.05925 | 35100 ft | 399 kts | 69° |
| 2026-04-12 15:54 | 31.07831 | 115.12000 | 35101 ft | 400 kts | 69° |
| 2026-04-12 15:54 | 31.09774 | 115.18088 | 35099 ft | 400 kts | 70° |
| 2026-04-12 15:55 | 31.11695 | 115.24147 | 35102 ft | 402 kts | 70° |
| 2026-04-12 15:55 | 31.13642 | 115.30282 | 35101 ft | 404 kts | 69° |
| 2026-04-12 15:56 | 31.15619 | 115.36389 | 35098 ft | 400 kts | 69° |
| 2026-04-12 15:56 | 31.17591 | 115.42467 | 35101 ft | 401 kts | 69° |
| 2026-04-12 15:57 | 31.19548 | 115.48510 | 35101 ft | 401 kts | 69° |
| 2026-04-12 15:57 | 31.21514 | 115.54596 | 35100 ft | 401 kts | 69° |
| 2026-04-12 15:58 | 31.23480 | 115.60695 | 35099 ft | 402 kts | 69° |
| 2026-04-12 15:58 | 31.25451 | 115.66821 | 35099 ft | 403 kts | 69° |
| 2026-04-12 15:59 | 31.27429 | 115.72982 | 35102 ft | 407 kts | 69° |
| 2026-04-12 15:59 | 31.29400 | 115.79140 | 35101 ft | 406 kts | 70° |
| 2026-04-12 16:00 | 31.31359 | 115.85309 | 35101 ft | 403 kts | 70° |
| 2026-04-12 16:00 | 31.33329 | 115.91437 | 35100 ft | 402 kts | 69° |
| 2026-04-12 16:01 | 31.35324 | 115.97552 | 35101 ft | 402 kts | 69° |
| 2026-04-12 16:01 | 31.37304 | 116.03614 | 35099 ft | 401 kts | 69° |
| 2026-04-12 16:02 | 31.39296 | 116.09729 | 35101 ft | 403 kts | 69° |
| 2026-04-12 16:02 | 31.41285 | 116.15847 | 35099 ft | 400 kts | 69° |
| 2026-04-12 16:03 | 31.43258 | 116.21929 | 35099 ft | 400 kts | 69° |
| 2026-04-12 16:03 | 31.45216 | 116.27976 | 35100 ft | 399 kts | 69° |
| 2026-04-12 16:04 | 31.47181 | 116.34059 | 35100 ft | 399 kts | 69° |
| 2026-04-12 16:04 | 31.49145 | 116.40146 | 35100 ft | 399 kts | 69° |
| 2026-04-12 16:05 | 31.51105 | 116.46236 | 35099 ft | 400 kts | 69° |
| 2026-04-12 16:05 | 31.53053 | 116.52296 | 35003 ft | 399 kts | 69° |
| 2026-04-12 16:06 | 31.55007 | 116.58389 | 34997 ft | 399 kts | 69° |
| 2026-04-12 16:06 | 31.56957 | 116.64482 | 35003 ft | 399 kts | 69° |
| 2026-04-12 16:07 | 31.58578 | 116.69553 | 35000 ft | 399 kts | 69° |
| 2026-04-12 16:07 | 31.60839 | 116.76642 | 35000 ft | 399 kts | 69° |
| 2026-04-12 16:08 | 31.62766 | 116.82750 | 35001 ft | 399 kts | 70° |
| 2026-04-12 16:08 | 31.64364 | 116.87829 | 35001 ft | 399 kts | 70° |
| 2026-04-12 16:09 | 31.66620 | 116.94972 | 35001 ft | 399 kts | 70° |
| 2026-04-12 16:09 | 31.68536 | 117.01044 | 35001 ft | 399 kts | 70° |
| 2026-04-12 16:10 | 31.70430 | 117.07172 | 34996 ft | 399 kts | 70° |
| 2026-04-12 16:10 | 31.71997 | 117.12271 | 35000 ft | 399 kts | 70° |
| 2026-04-12 16:11 | 31.74201 | 117.19441 | 35002 ft | 399 kts | 70° |
| 2026-04-12 16:11 | 31.75765 | 117.24539 | 34996 ft | 399 kts | 70° |
| 2026-04-12 16:12 | 31.77410 | 117.31828 | 34993 ft | 398 kts | 88° |
| 2026-04-12 16:12 | 31.77242 | 117.37229 | 35002 ft | 399 kts | 95° |
| 2026-04-12 16:13 | 31.76685 | 117.43716 | 35003 ft | 399 kts | 96° |
| 2026-04-12 16:13 | 31.76166 | 117.50208 | 35003 ft | 399 kts | 95° |
| 2026-04-12 16:14 | 31.75697 | 117.56703 | 34999 ft | 399 kts | 95° |
| 2026-04-12 16:14 | 31.75247 | 117.63161 | 35003 ft | 399 kts | 95° |
| 2026-04-12 16:15 | 31.74793 | 117.69663 | 35001 ft | 399 kts | 95° |
| 2026-04-12 16:15 | 31.74337 | 117.76158 | 35004 ft | 399 kts | 95° |
| 2026-04-12 16:16 | 31.73876 | 117.82657 | 35004 ft | 399 kts | 95° |
| 2026-04-12 16:16 | 31.73416 | 117.89111 | 34995 ft | 399 kts | 95° |
| 2026-04-12 16:17 | 31.72949 | 117.95607 | 35001 ft | 400 kts | 95° |
| 2026-04-12 16:17 | 31.72478 | 118.02106 | 34995 ft | 399 kts | 95° |
| 2026-04-12 16:18 | 31.72004 | 118.08605 | 35004 ft | 399 kts | 95° |
| 2026-04-12 16:18 | 31.71531 | 118.15098 | 34995 ft | 399 kts | 95° |
| 2026-04-12 16:19 | 31.71075 | 118.21545 | 35001 ft | 399 kts | 95° |
| 2026-04-12 16:19 | 31.70621 | 118.28041 | 35005 ft | 399 kts | 95° |
| 2026-04-12 16:20 | 31.70167 | 118.34534 | 34997 ft | 399 kts | 95° |
| 2026-04-12 16:20 | 31.69712 | 118.40982 | 34999 ft | 399 kts | 95° |
| 2026-04-12 16:21 | 31.69252 | 118.47475 | 35005 ft | 399 kts | 95° |
| 2026-04-12 16:21 | 31.68788 | 118.53959 | 35004 ft | 399 kts | 95° |
| 2026-04-12 16:22 | 31.68321 | 118.60452 | 35000 ft | 399 kts | 95° |
| 2026-04-12 16:22 | 31.67850 | 118.66945 | 35003 ft | 400 kts | 95° |
| 2026-04-12 16:23 | 31.67378 | 118.73399 | 34999 ft | 399 kts | 95° |
| 2026-04-12 16:23 | 31.66901 | 118.79888 | 34997 ft | 399 kts | 95° |
| 2026-04-12 16:24 | 31.66420 | 118.86383 | 34997 ft | 399 kts | 95° |
| 2026-04-12 16:24 | 31.65936 | 118.92872 | 34995 ft | 399 kts | 95° |
| 2026-04-12 16:25 | 31.65448 | 118.99319 | 35004 ft | 399 kts | 95° |
| 2026-04-12 16:25 | 31.64979 | 119.05807 | 35004 ft | 399 kts | 94° |
| 2026-04-12 16:26 | 31.64630 | 119.12304 | 34999 ft | 399 kts | 93° |
| 2026-04-12 16:26 | 31.64328 | 119.18813 | 35007 ft | 399 kts | 93° |
| 2026-04-12 16:27 | 31.64044 | 119.25275 | 34995 ft | 399 kts | 93° |
| 2026-04-12 16:27 | 31.63754 | 119.31787 | 34999 ft | 400 kts | 93° |
| 2026-04-12 16:28 | 31.63458 | 119.38294 | 35002 ft | 399 kts | 93° |
| 2026-04-12 16:28 | 31.63150 | 119.44796 | 35004 ft | 399 kts | 93° |
| 2026-04-12 16:29 | 31.62843 | 119.51248 | 34995 ft | 399 kts | 93° |
| 2026-04-12 16:29 | 31.62533 | 119.57749 | 35003 ft | 399 kts | 93° |
| 2026-04-12 16:30 | 31.62220 | 119.64248 | 34995 ft | 399 kts | 93° |
| 2026-04-12 16:30 | 31.61911 | 119.70746 | 35000 ft | 399 kts | 93° |
| 2026-04-12 16:31 | 31.61615 | 119.77201 | 34995 ft | 399 kts | 93° |
| 2026-04-12 16:31 | 31.61319 | 119.83700 | 35007 ft | 399 kts | 93° |
| 2026-04-12 16:32 | 31.61020 | 119.90197 | 35004 ft | 399 kts | 93° |
| 2026-04-12 16:32 | 31.60717 | 119.96697 | 35004 ft | 399 kts | 93° |
| 2026-04-12 16:33 | 31.60414 | 120.03151 | 35005 ft | 399 kts | 93° |
| 2026-04-12 16:33 | 31.60105 | 120.09650 | 34995 ft | 399 kts | 93° |
| 2026-04-12 16:34 | 31.59793 | 120.16145 | 35007 ft | 399 kts | 93° |
| 2026-04-12 16:34 | 31.59477 | 120.22641 | 35005 ft | 399 kts | 93° |
| 2026-04-12 16:35 | 31.59157 | 120.29096 | 34994 ft | 399 kts | 94° |
| 2026-04-12 16:35 | 31.57986 | 120.35432 | 34994 ft | 399 kts | 108° |
| 2026-04-12 16:36 | 31.56134 | 120.41559 | 34999 ft | 399 kts | 110° |
| 2026-04-12 16:36 | 31.54247 | 120.47678 | 34996 ft | 399 kts | 109° |
| 2026-04-12 16:37 | 31.52412 | 120.53769 | 34997 ft | 399 kts | 109° |
| 2026-04-12 16:37 | 31.50581 | 120.59906 | 34998 ft | 399 kts | 109° |
| 2026-04-12 16:38 | 31.48752 | 120.66043 | 35002 ft | 399 kts | 109° |
| 2026-04-12 16:38 | 31.46920 | 120.72181 | 35003 ft | 399 kts | 109° |
| 2026-04-12 16:39 | 31.45099 | 120.78268 | 35003 ft | 399 kts | 109° |
| 2026-04-12 16:39 | 31.43261 | 120.84400 | 35001 ft | 399 kts | 109° |
| 2026-04-12 16:40 | 31.41421 | 120.90526 | 35004 ft | 399 kts | 109° |
| 2026-04-12 16:40 | 31.39576 | 120.96653 | 34998 ft | 399 kts | 109° |
| 2026-04-12 16:41 | 31.37730 | 121.02775 | 35006 ft | 399 kts | 109° |
| 2026-04-12 16:41 | 31.35893 | 121.08855 | 34999 ft | 399 kts | 109° |
| 2026-04-12 16:42 | 31.34012 | 121.14961 | 34995 ft | 399 kts | 110° |
| 2026-04-12 16:42 | 31.32117 | 121.21060 | 35004 ft | 399 kts | 110° |
| 2026-04-12 16:43 | 31.28358 | 121.33221 | 34997 ft | 399 kts | 109° |
| 2026-04-12 16:44 | 31.26728 | 121.39420 | 35000 ft | 399 kts | 106° |
| 2026-04-12 16:44 | 31.25229 | 121.45663 | 34996 ft | 399 kts | 105° |
| 2026-04-12 16:45 | 31.23730 | 121.51904 | 35002 ft | 399 kts | 105° |
| 2026-04-12 16:45 | 31.22217 | 121.58142 | 35003 ft | 399 kts | 106° |
| 2026-04-12 16:46 | 31.20708 | 121.64330 | 34997 ft | 399 kts | 106° |
| 2026-04-12 16:46 | 31.19185 | 121.70561 | 35000 ft | 399 kts | 106° |
| 2026-04-12 16:47 | 31.17749 | 121.76820 | 34999 ft | 399 kts | 99° |
| 2026-04-12 16:47 | 31.17567 | 121.80035 | 35001 ft | 398 kts | 85° |
| 2026-04-12 16:47 | 31.17937 | 121.83187 | 35002 ft | 398 kts | 78° |
| 2026-04-12 16:48 | 31.19227 | 121.89485 | 35003 ft | 399 kts | 76° |
| 2026-04-12 16:48 | 31.20554 | 121.95779 | 34999 ft | 399 kts | 77° |
| 2026-04-12 16:49 | 31.21804 | 122.02092 | 34997 ft | 399 kts | 77° |
| 2026-04-12 16:49 | 31.23017 | 122.08413 | 34999 ft | 399 kts | 77° |
| 2026-04-12 16:50 | 31.24211 | 122.14699 | 35001 ft | 399 kts | 77° |
| 2026-04-12 16:50 | 31.25409 | 122.21031 | 34993 ft | 399 kts | 77° |
| 2026-04-12 16:51 | 31.26605 | 122.27362 | 34998 ft | 399 kts | 77° |
| 2026-04-12 16:51 | 31.27797 | 122.33695 | 34996 ft | 399 kts | 77° |
| 2026-04-12 16:52 | 31.28979 | 122.39986 | 34999 ft | 399 kts | 77° |
| 2026-04-12 16:52 | 31.30169 | 122.46319 | 35002 ft | 399 kts | 77° |
| 2026-04-12 16:53 | 31.31375 | 122.52654 | 35004 ft | 399 kts | 77° |
| 2026-04-12 16:53 | 31.32588 | 122.58982 | 34999 ft | 399 kts | 77° |
| 2026-04-12 16:54 | 31.33794 | 122.65274 | 35005 ft | 399 kts | 77° |
| 2026-04-12 16:54 | 31.35004 | 122.71608 | 35003 ft | 399 kts | 77° |
| 2026-04-12 16:55 | 31.36214 | 122.77941 | 35002 ft | 399 kts | 77° |
| 2026-04-12 16:55 | 31.37437 | 122.84271 | 35005 ft | 399 kts | 77° |
| 2026-04-12 16:56 | 31.38659 | 122.90558 | 35004 ft | 399 kts | 77° |
| 2026-04-12 16:56 | 31.39888 | 122.96893 | 34999 ft | 399 kts | 77° |
| 2026-04-12 16:57 | 31.41114 | 123.03223 | 35002 ft | 399 kts | 77° |
| 2026-04-12 16:57 | 31.42337 | 123.09559 | 34998 ft | 399 kts | 77° |
| 2026-04-12 16:58 | 31.43549 | 123.15855 | 34995 ft | 399 kts | 77° |
| 2026-04-12 16:58 | 31.44766 | 123.22192 | 35001 ft | 399 kts | 77° |
| 2026-04-12 16:59 | 31.45979 | 123.28529 | 34998 ft | 399 kts | 77° |
| 2026-04-12 16:59 | 31.47189 | 123.34872 | 34999 ft | 399 kts | 77° |
| 2026-04-12 17:00 | 31.48389 | 123.41174 | 34997 ft | 399 kts | 77° |
| 2026-04-12 17:00 | 31.49593 | 123.47517 | 34996 ft | 399 kts | 77° |
| 2026-04-12 17:01 | 31.50885 | 123.53837 | 35001 ft | 399 kts | 76° |
| 2026-04-12 17:01 | 31.52273 | 123.60134 | 35002 ft | 399 kts | 75° |
| 2026-04-12 17:02 | 31.53662 | 123.66382 | 35000 ft | 399 kts | 75° |
| 2026-04-12 17:02 | 31.55057 | 123.72678 | 34995 ft | 399 kts | 75° |
| 2026-04-12 17:03 | 31.56445 | 123.78975 | 35001 ft | 399 kts | 75° |
| 2026-04-12 17:03 | 31.57831 | 123.85276 | 34994 ft | 399 kts | 75° |
| 2026-04-12 17:04 | 31.59212 | 123.91577 | 35003 ft | 399 kts | 76° |
| 2026-04-12 17:04 | 31.60581 | 123.97836 | 34994 ft | 399 kts | 76° |
| 2026-04-12 17:05 | 31.61967 | 124.04142 | 34998 ft | 399 kts | 75° |
| 2026-04-12 17:05 | 31.63363 | 124.10437 | 35000 ft | 399 kts | 75° |
| 2026-04-12 17:06 | 31.64765 | 124.16739 | 35003 ft | 399 kts | 75° |
| 2026-04-12 17:06 | 31.66154 | 124.22994 | 34993 ft | 399 kts | 75° |
| 2026-04-12 17:07 | 31.67551 | 124.29297 | 34999 ft | 399 kts | 75° |
| 2026-04-12 17:07 | 31.68944 | 124.35605 | 34995 ft | 399 kts | 75° |
| 2026-04-12 17:08 | 31.70334 | 124.41911 | 35004 ft | 399 kts | 75° |
| 2026-04-12 17:08 | 31.71711 | 124.48175 | 34999 ft | 399 kts | 75° |
| 2026-04-12 17:09 | 31.73095 | 124.54485 | 34998 ft | 399 kts | 75° |
| 2026-04-12 17:09 | 31.74475 | 124.60796 | 34999 ft | 399 kts | 76° |
| 2026-04-12 17:10 | 31.75854 | 124.67114 | 35001 ft | 399 kts | 76° |
| 2026-04-12 17:10 | 31.77219 | 124.73387 | 35001 ft | 399 kts | 76° |
| 2026-04-12 17:11 | 31.78590 | 124.79703 | 34998 ft | 399 kts | 76° |
| 2026-04-12 17:11 | 31.79958 | 124.86023 | 35001 ft | 399 kts | 76° |
| 2026-04-12 17:12 | 31.81323 | 124.92344 | 35002 ft | 399 kts | 76° |
| 2026-04-12 17:12 | 31.82585 | 124.98647 | 35001 ft | 399 kts | 82° |
| 2026-04-12 17:12 | 31.82719 | 125.01892 | 35001 ft | 398 kts | 94° |
| 2026-04-12 17:13 | 31.82382 | 125.05121 | 35007 ft | 398 kts | 100° |
| 2026-04-12 17:13 | 31.81277 | 125.11511 | 35003 ft | 399 kts | 102° |
| 2026-04-12 17:14 | 31.80147 | 125.17896 | 35001 ft | 399 kts | 101° |
| 2026-04-12 17:14 | 31.79083 | 125.24251 | 35006 ft | 399 kts | 101° |
| 2026-04-12 17:15 | 31.78037 | 125.30652 | 35000 ft | 399 kts | 101° |
| 2026-04-12 17:15 | 31.76993 | 125.37058 | 35001 ft | 399 kts | 101° |
| 2026-04-12 17:16 | 31.75947 | 125.43458 | 34999 ft | 399 kts | 101° |
| 2026-04-12 17:16 | 31.74904 | 125.49812 | 34994 ft | 399 kts | 101° |
| 2026-04-12 17:17 | 31.73851 | 125.56211 | 34994 ft | 399 kts | 101° |
| 2026-04-12 17:17 | 31.72795 | 125.62610 | 35004 ft | 399 kts | 101° |
| 2026-04-12 17:18 | 31.72590 | 125.69070 | 35005 ft | 398 kts | 80° |
| 2026-04-12 17:18 | 31.73906 | 125.75341 | 35003 ft | 399 kts | 74° |
| 2026-04-12 17:19 | 31.75424 | 125.81611 | 35000 ft | 399 kts | 74° |
| 2026-04-12 17:19 | 31.76872 | 125.87906 | 34997 ft | 399 kts | 75° |
| 2026-04-12 17:20 | 31.78273 | 125.94217 | 34996 ft | 399 kts | 75° |
| 2026-04-12 17:20 | 31.79645 | 126.00488 | 34997 ft | 399 kts | 76° |
| 2026-04-12 17:21 | 31.81024 | 126.06805 | 35001 ft | 399 kts | 76° |
| 2026-04-12 17:21 | 31.82402 | 126.13122 | 34996 ft | 399 kts | 76° |
| 2026-04-12 17:22 | 31.83779 | 126.19444 | 34998 ft | 399 kts | 76° |
| 2026-04-12 17:22 | 31.85144 | 126.25722 | 34998 ft | 399 kts | 76° |
| 2026-04-12 17:23 | 31.86513 | 126.32043 | 34999 ft | 399 kts | 76° |
| 2026-04-12 17:23 | 31.87881 | 126.38368 | 34994 ft | 399 kts | 76° |
| 2026-04-12 17:24 | 31.89236 | 126.44654 | 34995 ft | 399 kts | 76° |
| 2026-04-12 17:24 | 31.90602 | 126.50981 | 34998 ft | 399 kts | 76° |
| 2026-04-12 17:25 | 31.91984 | 126.57305 | 34998 ft | 399 kts | 75° |
| 2026-04-12 17:25 | 31.93373 | 126.63630 | 35002 ft | 399 kts | 75° |
| 2026-04-12 17:26 | 31.94760 | 126.69951 | 34998 ft | 399 kts | 75° |
| 2026-04-12 17:26 | 31.96136 | 126.76232 | 35005 ft | 399 kts | 75° |
| 2026-04-12 17:27 | 31.97518 | 126.82565 | 35002 ft | 399 kts | 76° |
| 2026-04-12 17:27 | 31.98897 | 126.88893 | 35000 ft | 399 kts | 76° |
| 2026-04-12 17:28 | 32.00272 | 126.95224 | 34996 ft | 399 kts | 76° |
| 2026-04-12 17:28 | 32.01635 | 127.01513 | 34997 ft | 399 kts | 76° |
| 2026-04-12 17:29 | 32.03005 | 127.07851 | 34998 ft | 399 kts | 76° |
| 2026-04-12 17:29 | 32.04698 | 127.14065 | 35002 ft | 399 kts | 68° |
| 2026-04-12 17:30 | 32.06927 | 127.20055 | 34993 ft | 399 kts | 65° |
| 2026-04-12 17:30 | 32.09214 | 127.26016 | 35004 ft | 399 kts | 66° |
| 2026-04-12 17:31 | 32.11462 | 127.31952 | 34996 ft | 399 kts | 66° |
| 2026-04-12 17:31 | 32.13705 | 127.37939 | 35001 ft | 399 kts | 66° |
| 2026-04-12 17:32 | 32.15940 | 127.43930 | 35002 ft | 399 kts | 66° |
| 2026-04-12 17:32 | 32.18160 | 127.49886 | 34997 ft | 399 kts | 66° |
| 2026-04-12 17:33 | 32.20394 | 127.55883 | 35000 ft | 399 kts | 66° |